createdAt,value
2023-01-28T00:02:03.435Z,55.00
2023-01-28T00:04:32.887Z,54.90
2023-01-28T00:07:00.912Z,54.90
2023-01-28T00:09:28.905Z,54.90
2023-01-28T00:11:56.772Z,54.90
2023-01-28T00:14:24.755Z,55.00
2023-01-28T00:16:52.644Z,55.00
2023-01-28T00:19:20.437Z,55.00
2023-01-28T00:21:49.861Z,54.90
2023-01-28T00:24:17.813Z,54.90
2023-01-28T00:26:45.900Z,54.90
2023-01-28T00:29:13.809Z,54.90
2023-01-28T00:31:42.113Z,54.90
2023-01-28T00:34:10.622Z,54.90
2023-01-28T00:36:42.358Z,54.90
2023-01-28T00:39:15.567Z,54.90
2023-01-28T00:41:43.565Z,54.90
2023-01-28T00:44:11.693Z,54.90
2023-01-28T00:46:41.974Z,54.80
2023-01-28T00:49:10.315Z,54.90
2023-01-28T00:51:38.570Z,54.80
2023-01-28T00:54:07.139Z,54.80
2023-01-28T00:56:37.678Z,54.90
2023-01-28T00:59:07.079Z,54.80
2023-01-28T01:01:35.744Z,54.80
2023-01-28T01:04:03.662Z,54.90
2023-01-28T01:06:35.366Z,54.80
2023-01-28T01:09:03.669Z,54.80
2023-01-28T01:11:31.787Z,54.80
2023-01-28T01:14:05.234Z,54.80
2023-01-28T01:16:36.092Z,54.80
2023-01-28T01:19:05.329Z,54.80
2023-01-28T01:21:33.343Z,54.80
2023-01-28T01:24:01.316Z,54.80
2023-01-28T01:26:29.978Z,55.30
2023-01-28T01:29:00.277Z,54.90
2023-01-28T01:31:28.216Z,54.90
2023-01-28T01:33:59.333Z,54.90
2023-01-28T01:36:27.448Z,54.80
2023-01-28T01:38:56.410Z,54.80
2023-01-28T01:41:29.031Z,54.80
2023-01-28T01:43:59.557Z,54.80
2023-01-28T01:46:36.190Z,54.80
2023-01-28T01:49:12.851Z,54.80
2023-01-28T01:51:42.100Z,54.80
2023-01-28T01:54:10.312Z,54.90
2023-01-28T01:56:42.328Z,54.80
2023-01-28T01:59:13.794Z,54.80
2023-01-28T02:01:45.512Z,54.80
2023-01-28T02:04:20.293Z,54.80
2023-01-28T02:06:48.972Z,54.80
2023-01-28T02:09:29.642Z,54.80
2023-01-28T02:12:01.021Z,54.70
2023-01-28T02:14:33.778Z,54.70
2023-01-28T02:17:03.655Z,54.70
2023-01-28T02:19:38.901Z,54.70
2023-01-28T02:22:22.009Z,54.70
2023-01-28T02:25:18.897Z,54.70
2023-01-28T02:28:11.255Z,54.70
2023-01-28T02:30:42.991Z,55.20
2023-01-28T02:33:19.145Z,54.70
2023-01-28T02:35:53.490Z,54.70
2023-01-28T02:38:27.662Z,54.70
2023-01-28T02:41:06.534Z,54.60
2023-01-28T02:43:38.658Z,54.60
2023-01-28T02:46:38.303Z,54.50
2023-01-28T02:49:09.775Z,54.40
2023-01-28T02:51:54.014Z,54.50
2023-01-28T02:54:33.202Z,54.40
2023-01-28T02:57:10.156Z,54.40
2023-01-28T02:59:49.443Z,54.40
2023-01-28T03:02:24.736Z,54.40
2023-01-28T03:04:58.503Z,54.30
2023-01-28T03:07:30.735Z,54.30
2023-01-28T03:10:04.397Z,54.20
2023-01-28T03:12:50.997Z,54.10
2023-01-28T03:15:40.960Z,54.10
2023-01-28T03:18:31.128Z,54.10
2023-01-28T03:21:29.491Z,54.10
2023-01-28T03:24:19.147Z,54.10
2023-01-28T03:27:14.809Z,54.10
2023-01-28T03:30:04.639Z,54.10
2023-01-28T03:32:53.174Z,54.20
2023-01-28T03:35:42.077Z,54.20
2023-01-28T03:38:22.866Z,54.10
2023-01-28T03:40:53.671Z,54.60
2023-01-28T03:43:21.816Z,54.20
2023-01-28T03:45:51.525Z,54.10
2023-01-28T03:48:22.802Z,54.10
2023-01-28T03:50:52.056Z,54.10
2023-01-28T03:53:20.648Z,54.10
2023-01-28T03:55:54.998Z,54.10
2023-01-28T03:58:27.079Z,54.10
2023-01-28T04:00:55.461Z,54.10
2023-01-28T04:03:24.787Z,54.00
2023-01-28T04:06:00.979Z,54.00
2023-01-28T04:08:45.990Z,54.00
2023-01-28T04:11:52.789Z,53.90
2023-01-28T04:14:28.890Z,53.90
2023-01-28T04:17:05.625Z,54.00
2023-01-28T04:19:37.237Z,53.90
2023-01-28T04:22:08.301Z,53.90
2023-01-28T04:24:36.539Z,54.00
2023-01-28T04:27:04.568Z,53.90
2023-01-28T04:29:32.761Z,53.90
2023-01-28T04:32:13.630Z,53.90
2023-01-28T04:35:03.048Z,53.90
2023-01-28T04:38:05.980Z,53.90
2023-01-28T04:41:09.556Z,53.90
2023-01-28T04:43:37.686Z,54.00
2023-01-28T04:46:32.244Z,54.00
2023-01-28T04:49:25.523Z,54.00
2023-01-28T04:52:13.829Z,54.00
2023-01-28T04:55:20.248Z,54.00
2023-01-28T04:57:49.195Z,54.00
2023-01-28T05:00:18.138Z,54.00
2023-01-28T05:02:46.485Z,53.90
2023-01-28T05:05:14.796Z,53.80
2023-01-28T05:07:59.670Z,53.80
2023-01-28T05:10:28.619Z,53.80
2023-01-28T05:12:56.896Z,53.80
2023-01-28T05:15:24.875Z,53.80
2023-01-28T05:17:56.987Z,53.80
2023-01-28T05:20:25.784Z,53.80
2023-01-28T05:22:54.864Z,53.80
2023-01-28T05:25:28.644Z,53.80
2023-01-28T05:27:56.627Z,53.70
2023-01-28T05:30:24.872Z,53.60
2023-01-28T05:32:56.791Z,53.50
2023-01-28T05:35:24.994Z,53.90
2023-01-28T05:37:53.145Z,53.40
2023-01-28T05:40:21.410Z,53.40
2023-01-28T05:42:50.922Z,53.40
2023-01-28T05:45:37.419Z,53.30
2023-01-28T05:48:12.447Z,53.20
2023-01-28T05:50:59.187Z,53.20
2023-01-28T05:53:35.860Z,53.20
2023-01-28T05:56:04.510Z,53.20
2023-01-28T05:58:35.514Z,53.30
2023-01-28T06:01:05.059Z,53.30
2023-01-28T06:03:41.201Z,53.30
2023-01-28T06:06:09.258Z,53.20
2023-01-28T06:08:38.181Z,53.20
2023-01-28T06:11:06.578Z,53.20
2023-01-28T06:13:37.636Z,53.20
2023-01-28T06:16:27.647Z,53.10
2023-01-28T06:19:12.277Z,53.10
2023-01-28T06:21:40.349Z,53.10
2023-01-28T06:24:08.757Z,53.00
2023-01-28T06:26:37.032Z,53.10
2023-01-28T06:29:06.506Z,53.10
2023-01-28T06:31:34.649Z,53.10
2023-01-28T06:34:02.598Z,53.10
2023-01-28T06:36:30.544Z,53.00
2023-01-28T06:38:58.733Z,52.90
2023-01-28T06:41:26.765Z,52.90
2023-01-28T06:43:54.594Z,52.80
2023-01-28T06:46:24.996Z,52.70
2023-01-28T06:48:52.956Z,52.70
2023-01-28T06:51:21.031Z,52.60
2023-01-28T06:53:48.940Z,52.70
2023-01-28T06:56:16.926Z,52.60
2023-01-28T06:58:44.902Z,52.60
2023-01-28T07:01:15.016Z,52.60
2023-01-28T07:03:44.417Z,52.70
2023-01-28T07:06:12.439Z,52.70
2023-01-28T07:08:41.332Z,52.70
2023-01-28T07:11:09.427Z,52.80
2023-01-28T07:13:37.370Z,52.70
2023-01-28T07:16:06.673Z,52.70
2023-01-28T07:18:34.861Z,52.70
2023-01-28T07:21:04.341Z,52.70
2023-01-28T07:23:32.277Z,52.60
2023-01-28T07:26:02.992Z,52.50
2023-01-28T07:28:31.182Z,52.50
2023-01-28T07:30:59.448Z,52.40
2023-01-28T07:33:27.873Z,52.30
2023-01-28T07:35:55.719Z,52.30
2023-01-28T07:38:25.331Z,52.20
2023-01-28T07:40:53.215Z,52.20
2023-01-28T07:43:21.385Z,52.30
2023-01-28T07:45:51.008Z,52.20
2023-01-28T07:48:19.302Z,52.30
2023-01-28T07:50:49.663Z,52.20
2023-01-28T07:53:17.642Z,52.30
2023-01-28T07:55:47.628Z,52.40
2023-01-28T07:58:15.534Z,52.40
2023-01-28T08:00:44.161Z,52.40
2023-01-28T08:03:15.714Z,52.30
2023-01-28T08:05:46.714Z,52.30
2023-01-28T08:08:15.520Z,52.40
2023-01-28T08:10:44.071Z,52.30
2023-01-28T08:13:14.461Z,52.20
2023-01-28T08:15:42.633Z,52.20
2023-01-28T08:18:13.276Z,52.00
2023-01-28T08:20:43.344Z,52.00
2023-01-28T08:23:14.298Z,52.00
2023-01-28T08:25:42.486Z,52.00
2023-01-28T08:28:10.903Z,52.10
2023-01-28T08:30:40.720Z,52.00
2023-01-28T08:33:10.673Z,52.10
2023-01-28T08:35:39.509Z,52.20
2023-01-28T08:38:09.484Z,52.20
2023-01-28T08:40:38.039Z,52.30
2023-01-28T08:43:06.532Z,52.30
2023-01-28T08:45:34.562Z,52.20
2023-01-28T08:48:05.526Z,52.30
2023-01-28T08:50:35.914Z,52.30
2023-01-28T08:53:06.460Z,52.40
2023-01-28T08:55:35.356Z,52.40
2023-01-28T08:58:04.206Z,52.40
2023-01-28T09:00:32.333Z,52.40
2023-01-28T09:03:00.803Z,52.30
2023-01-28T09:05:32.138Z,52.30
2023-01-28T09:08:03.008Z,52.10
2023-01-28T09:10:31.316Z,51.90
2023-01-28T09:12:59.326Z,52.00
2023-01-28T09:15:27.219Z,52.00
2023-01-28T09:17:59.369Z,51.90
2023-01-28T09:20:27.392Z,51.80
2023-01-28T09:22:56.874Z,51.80
2023-01-28T09:25:24.795Z,51.80
2023-01-28T09:27:52.900Z,51.80
2023-01-28T09:30:20.900Z,51.70
2023-01-28T09:32:52.274Z,51.70
2023-01-28T09:35:20.548Z,51.60
2023-01-28T09:37:49.193Z,51.60
2023-01-28T09:40:22.378Z,51.60
2023-01-28T09:43:20.912Z,51.60
2023-01-28T09:45:51.287Z,51.30
2023-01-28T09:48:22.579Z,51.30
2023-01-28T09:50:53.103Z,51.00
2023-01-28T09:53:24.022Z,50.90
2023-01-28T09:55:57.447Z,50.80
2023-01-28T09:58:25.624Z,50.60
2023-01-28T10:01:00.487Z,50.70
2023-01-28T10:03:54.427Z,50.60
2023-01-28T10:06:29.418Z,50.30
2023-01-28T10:09:20.410Z,50.60
2023-01-28T10:12:04.257Z,50.50
2023-01-28T10:14:44.200Z,50.50
2023-01-28T10:17:17.962Z,50.50
2023-01-28T10:19:51.356Z,50.60
2023-01-28T10:22:24.330Z,50.50
2023-01-28T10:24:58.310Z,50.60
2023-01-28T10:27:31.770Z,50.60
2023-01-28T10:30:01.690Z,50.60
2023-01-28T10:32:34.106Z,50.60
2023-01-28T10:35:03.547Z,50.60
2023-01-28T10:37:35.616Z,50.80
2023-01-28T10:40:05.084Z,50.70
2023-01-28T10:42:36.024Z,50.70
2023-01-28T10:45:11.070Z,50.60
2023-01-28T10:47:42.036Z,50.50
2023-01-28T10:50:18.460Z,50.50
2023-01-28T10:52:57.507Z,50.30
2023-01-28T10:55:27.976Z,50.20
2023-01-28T10:57:57.601Z,50.80
2023-01-28T11:00:30.823Z,50.20
2023-01-28T11:02:58.845Z,50.40
2023-01-28T11:05:29.061Z,50.50
2023-01-28T11:08:13.930Z,50.20
2023-01-28T11:10:42.799Z,49.90
2023-01-28T11:13:20.201Z,50.00
2023-01-28T11:15:50.340Z,49.70
2023-01-28T11:18:22.700Z,49.80
2023-01-28T11:20:54.625Z,49.70
2023-01-28T11:23:25.411Z,49.80
2023-01-28T11:26:04.308Z,49.80
2023-01-28T11:28:34.596Z,49.50
2023-01-28T11:31:05.089Z,49.70
2023-01-28T11:33:37.351Z,49.80
2023-01-28T11:36:08.390Z,49.70
2023-01-28T11:38:36.488Z,49.70
2023-01-28T11:41:04.687Z,49.60
2023-01-28T11:43:34.375Z,49.60
2023-01-28T11:46:18.800Z,49.50
2023-01-28T11:48:57.113Z,49.90
2023-01-28T11:51:37.826Z,49.50
2023-01-28T11:54:17.680Z,49.40
2023-01-28T11:57:00.998Z,49.40
2023-01-28T11:59:53.665Z,49.40
2023-01-28T12:02:46.073Z,49.20
2023-01-28T12:05:30.538Z,49.40
2023-01-28T12:08:08.487Z,49.40
2023-01-28T12:10:45.632Z,49.40
2023-01-28T12:13:36.750Z,50.00
2023-01-28T12:16:40.736Z,49.30
2023-01-28T12:19:47.645Z,49.20
2023-01-28T12:22:36.279Z,49.40
2023-01-28T12:25:33.713Z,49.40
2023-01-28T12:28:10.113Z,49.40
2023-01-28T12:30:56.706Z,49.70
2023-01-28T12:33:52.830Z,49.60
2023-01-28T12:36:40.003Z,49.50
2023-01-28T12:39:20.599Z,49.60
2023-01-28T12:41:52.798Z,49.60
2023-01-28T12:44:25.085Z,49.60
2023-01-28T12:46:56.287Z,49.60
2023-01-28T12:49:30.406Z,49.60
2023-01-28T12:52:04.523Z,49.50
2023-01-28T12:54:38.191Z,49.40
2023-01-28T12:57:10.590Z,49.50
2023-01-28T12:59:45.533Z,49.50
2023-01-28T13:02:25.333Z,49.40
2023-01-28T13:05:02.263Z,49.20
2023-01-28T13:07:36.347Z,49.30
2023-01-28T13:10:11.321Z,49.20
2023-01-28T13:12:40.405Z,49.40
2023-01-28T13:15:14.260Z,49.40
2023-01-28T13:17:55.843Z,49.30
2023-01-28T13:20:46.749Z,49.10
2023-01-28T13:23:25.793Z,49.10
2023-01-28T13:25:55.584Z,49.20
2023-01-28T13:28:28.867Z,49.40
2023-01-28T13:31:03.471Z,49.30
2023-01-28T13:33:34.112Z,49.20
2023-01-28T13:36:17.883Z,49.20
2023-01-28T13:38:46.436Z,49.10
2023-01-28T13:41:14.342Z,49.20
2023-01-28T13:43:43.746Z,49.10
2023-01-28T13:46:14.220Z,49.00
2023-01-28T13:48:46.630Z,49.00
2023-01-28T13:51:21.234Z,49.00
2023-01-28T13:53:56.992Z,48.90
2023-01-28T13:56:29.600Z,48.90
2023-01-28T13:59:29.952Z,48.90
2023-01-28T14:02:18.410Z,48.70
2023-01-28T14:05:24.844Z,48.80
2023-01-28T14:08:20.965Z,48.70
2023-01-28T14:11:02.899Z,48.90
2023-01-28T14:13:53.172Z,49.00
2023-01-28T14:16:36.308Z,48.90
2023-01-28T14:19:06.506Z,48.90
2023-01-28T14:21:36.717Z,49.00
2023-01-28T14:24:06.981Z,48.90
2023-01-28T14:26:49.662Z,49.00
2023-01-28T14:29:29.182Z,49.50
2023-01-28T14:31:57.351Z,50.20
2023-01-28T14:34:29.036Z,50.70
2023-01-28T14:37:00.166Z,50.80
2023-01-28T14:39:33.229Z,50.70
2023-01-28T14:42:03.617Z,50.20
2023-01-28T14:44:34.523Z,49.80
2023-01-28T14:47:30.557Z,49.40
2023-01-28T14:50:21.185Z,49.00
2023-01-28T14:53:04.463Z,48.90
2023-01-28T14:55:43.668Z,48.80
2023-01-28T14:58:19.364Z,48.40
2023-01-28T15:00:54.916Z,48.00
2023-01-28T15:03:25.378Z,47.60
2023-01-28T15:06:07.079Z,47.60
2023-01-28T15:08:36.063Z,46.80
2023-01-28T15:11:08.738Z,46.90
2023-01-28T15:13:39.884Z,46.50
2023-01-28T15:16:08.870Z,46.40
2023-01-28T15:18:38.968Z,46.30
2023-01-28T15:21:07.392Z,46.20
2023-01-28T15:23:38.226Z,46.20
2023-01-28T15:26:09.375Z,46.10
2023-01-28T15:28:40.568Z,46.00
2023-01-28T15:31:17.877Z,46.10
2023-01-28T15:33:45.840Z,46.20
2023-01-28T15:36:14.115Z,46.20
2023-01-28T15:38:42.018Z,46.30
2023-01-28T15:41:13.409Z,46.40
2023-01-28T15:43:41.476Z,46.40
2023-01-28T15:46:13.464Z,46.50
2023-01-28T15:48:45.317Z,46.50
2023-01-28T15:51:21.231Z,46.40
2023-01-28T15:53:52.929Z,46.30
2023-01-28T15:56:28.250Z,46.20
2023-01-28T15:58:57.307Z,46.30
2023-01-28T16:01:25.450Z,46.50
2023-01-28T16:04:05.400Z,46.50
2023-01-28T16:06:37.169Z,46.60
2023-01-28T16:09:08.400Z,46.70
2023-01-28T16:11:44.774Z,46.70
2023-01-28T16:14:23.150Z,46.70
2023-01-28T16:16:51.529Z,46.70
2023-01-28T16:19:38.447Z,46.70
2023-01-28T16:22:07.961Z,46.90
2023-01-28T16:24:37.070Z,47.10
2023-01-28T16:27:08.082Z,47.20
2023-01-28T16:29:37.123Z,47.30
2023-01-28T16:32:05.501Z,47.40
2023-01-28T16:34:33.441Z,47.50
2023-01-28T16:37:02.700Z,47.50
2023-01-28T16:39:31.163Z,47.70
2023-01-28T16:42:00.217Z,47.80
2023-01-28T16:44:29.530Z,47.90
2023-01-28T16:46:57.526Z,48.00
2023-01-28T16:49:26.554Z,48.10
2023-01-28T16:51:54.846Z,48.20
2023-01-28T16:54:23.343Z,48.30
2023-01-28T16:56:51.486Z,48.40
2023-01-28T16:59:19.789Z,48.40
2023-01-28T17:01:49.527Z,48.60
2023-01-28T17:04:17.612Z,48.60
2023-01-28T17:06:46.106Z,48.80
2023-01-28T17:09:15.882Z,48.90
2023-01-28T17:11:43.795Z,49.00
2023-01-28T17:14:12.555Z,49.00
2023-01-28T17:16:40.808Z,49.10
2023-01-28T17:19:10.401Z,49.20
2023-01-28T17:21:38.285Z,49.30
2023-01-28T17:24:07.172Z,49.40
2023-01-28T17:26:36.608Z,49.50
2023-01-28T17:29:05.660Z,49.50
2023-01-28T17:31:33.998Z,49.60
2023-01-28T17:34:02.481Z,49.70
2023-01-28T17:36:32.214Z,49.70
2023-01-28T17:39:00.128Z,49.70
2023-01-28T17:41:27.950Z,49.70
2023-01-28T17:43:57.998Z,49.70
2023-01-28T17:46:27.272Z,49.80
2023-01-28T17:48:55.406Z,49.80
2023-01-28T17:51:23.364Z,49.90
2023-01-28T17:53:53.952Z,50.00
2023-01-28T17:56:24.090Z,49.80
2023-01-28T17:58:52.895Z,49.60
2023-01-28T18:01:21.176Z,49.60
2023-01-28T18:03:49.426Z,49.70
2023-01-28T18:06:17.776Z,49.80
2023-01-28T18:08:46.116Z,49.90
2023-01-28T18:11:17.809Z,49.90
2023-01-28T18:13:46.213Z,49.90
2023-01-28T18:16:17.864Z,49.90
2023-01-28T18:18:46.669Z,49.90
2023-01-28T18:21:23.737Z,49.90
2023-01-28T18:23:54.678Z,49.90
2023-01-28T18:26:23.942Z,49.80
2023-01-28T18:28:52.027Z,49.80
2023-01-28T18:31:20.532Z,49.70
2023-01-28T18:33:49.340Z,49.70
2023-01-28T18:36:17.757Z,49.60
2023-01-28T18:38:46.044Z,49.70
2023-01-28T18:41:14.517Z,49.70
2023-01-28T18:43:44.376Z,49.60
2023-01-28T18:46:14.410Z,49.70
2023-01-28T18:48:42.766Z,49.70
2023-01-28T18:51:28.979Z,49.60
2023-01-28T18:53:59.562Z,49.70
2023-01-28T18:56:28.164Z,49.80
2023-01-28T18:58:58.497Z,49.80
2023-01-28T19:01:26.657Z,49.90
2023-01-28T19:03:54.821Z,50.00
2023-01-28T19:06:22.715Z,50.00
2023-01-28T19:08:53.760Z,50.10
2023-01-28T19:11:22.195Z,50.20
2023-01-28T19:13:50.096Z,50.20
2023-01-28T19:16:20.233Z,50.20
2023-01-28T19:18:53.788Z,50.30
2023-01-28T19:21:22.088Z,50.30
2023-01-28T19:23:55.845Z,50.30
2023-01-28T19:26:24.642Z,50.40
2023-01-28T19:28:52.770Z,50.40
2023-01-28T19:31:24.325Z,50.40
2023-01-28T19:33:55.652Z,50.50
2023-01-28T19:36:24.274Z,50.50
2023-01-28T19:38:52.306Z,50.60
2023-01-28T19:41:20.539Z,50.60
2023-01-28T19:43:49.321Z,50.50
2023-01-28T19:46:18.586Z,50.30
2023-01-28T19:48:48.178Z,50.30
2023-01-28T19:51:17.284Z,50.10
2023-01-28T19:53:46.210Z,50.00
2023-01-28T19:56:15.994Z,50.00
2023-01-28T19:58:45.372Z,50.10
2023-01-28T20:01:15.224Z,50.00
2023-01-28T20:03:44.028Z,50.00
2023-01-28T20:06:15.633Z,50.00
2023-01-28T20:08:44.694Z,50.10
2023-01-28T20:11:14.517Z,50.10
2023-01-28T20:13:44.363Z,50.10
2023-01-28T20:16:16.559Z,50.10
2023-01-28T20:18:44.539Z,50.20
2023-01-28T20:21:13.861Z,50.20
2023-01-28T20:23:42.210Z,50.20
2023-01-28T20:26:10.222Z,50.10
2023-01-28T20:28:38.369Z,50.20
2023-01-28T20:31:07.438Z,50.20
2023-01-28T20:33:35.814Z,50.30
2023-01-28T20:36:04.256Z,50.30
2023-01-28T20:38:35.748Z,50.40
2023-01-28T20:41:07.162Z,50.40
2023-01-28T20:43:35.815Z,50.50
2023-01-28T20:46:05.411Z,50.60
2023-01-28T20:48:33.995Z,50.70
2023-01-28T20:51:08.690Z,50.70
2023-01-28T20:53:39.146Z,50.90
2023-01-28T20:56:08.452Z,50.90
2023-01-28T20:58:36.831Z,50.90
2023-01-28T21:01:05.391Z,51.00
2023-01-28T21:03:34.493Z,51.00
2023-01-28T21:06:02.441Z,51.00
2023-01-28T21:08:30.516Z,51.00
2023-01-28T21:11:02.627Z,51.00
2023-01-28T21:13:30.911Z,51.00
2023-01-28T21:15:59.722Z,51.00
2023-01-28T21:18:28.169Z,51.00
2023-01-28T21:20:56.222Z,50.90
2023-01-28T21:23:24.686Z,50.90
2023-01-28T21:25:52.664Z,51.00
2023-01-28T21:28:22.096Z,51.00
2023-01-28T21:30:50.128Z,51.00
2023-01-28T21:33:18.302Z,51.00
2023-01-28T21:35:46.249Z,50.90
2023-01-28T21:38:14.328Z,50.90
2023-01-28T21:40:42.514Z,50.80
2023-01-28T21:43:12.556Z,50.80
2023-01-28T21:45:42.805Z,50.80
2023-01-28T21:48:10.839Z,50.80
2023-01-28T21:50:59.411Z,50.70
2023-01-28T21:53:27.462Z,50.80
2023-01-28T21:55:55.631Z,50.80
2023-01-28T21:58:41.307Z,50.80
2023-01-28T22:01:11.343Z,50.90
2023-01-28T22:03:39.521Z,51.30
2023-01-28T22:06:07.995Z,50.90
2023-01-28T22:08:36.457Z,50.90
2023-01-28T22:11:05.082Z,50.90
2023-01-28T22:13:33.787Z,51.00
2023-01-28T22:16:02.143Z,51.00
2023-01-28T22:18:31.852Z,51.00
2023-01-28T22:21:00.332Z,51.00
2023-01-28T22:23:28.885Z,51.00
2023-01-28T22:25:57.490Z,51.00
2023-01-28T22:28:26.463Z,51.00
2023-01-28T22:30:55.171Z,51.00
2023-01-28T22:33:23.617Z,51.00
2023-01-28T22:35:52.967Z,51.00
2023-01-28T22:38:21.133Z,51.00
2023-01-28T22:40:49.020Z,51.00
2023-01-28T22:43:18.264Z,51.00
2023-01-28T22:45:46.232Z,51.10
2023-01-28T22:48:14.486Z,51.10
2023-01-28T22:50:42.475Z,51.00
2023-01-28T22:53:11.846Z,51.10
2023-01-28T22:55:39.864Z,51.10
2023-01-28T22:58:09.202Z,51.10
2023-01-28T23:00:38.960Z,51.10
2023-01-28T23:03:06.969Z,51.10
2023-01-28T23:05:35.266Z,51.10
2023-01-28T23:08:10.642Z,51.10
2023-01-28T23:10:41.589Z,51.10
2023-01-28T23:13:09.459Z,51.10
2023-01-28T23:15:54.958Z,51.10
2023-01-28T23:18:41.568Z,51.10
2023-01-28T23:21:34.435Z,51.10
2023-01-28T23:24:20.766Z,51.10
2023-01-28T23:26:52.980Z,51.10
2023-01-28T23:29:24.048Z,51.10
2023-01-28T23:31:54.716Z,51.10
2023-01-28T23:34:24.512Z,51.10
2023-01-28T23:36:52.386Z,51.10
2023-01-28T23:39:20.401Z,51.10
2023-01-28T23:41:48.505Z,51.20
2023-01-28T23:44:18.517Z,51.20
2023-01-28T23:46:46.722Z,51.20
2023-01-28T23:49:14.698Z,51.20
2023-01-28T23:51:43.872Z,51.20
2023-01-28T23:54:11.750Z,51.30
2023-01-28T23:56:40.315Z,51.30
2023-01-28T23:59:08.450Z,51.20
